createdAt,value
2022-10-02T00:00:38.620Z,88.20
2022-10-02T00:03:32.326Z,88.90
2022-10-02T00:06:25.973Z,89.60
2022-10-02T00:09:24.612Z,89.90
2022-10-02T00:12:18.607Z,90.10
2022-10-02T00:15:16.444Z,90.20
2022-10-02T00:18:12.648Z,90.40
2022-10-02T00:21:15.392Z,90.50
2022-10-02T00:24:08.318Z,90.70
2022-10-02T00:27:05.514Z,90.40
2022-10-02T00:30:00.048Z,90.70
2022-10-02T00:33:03.111Z,90.50
2022-10-02T00:36:19.740Z,91.10
2022-10-02T00:39:28.000Z,91.50
2022-10-02T00:43:01.694Z,91.40
2022-10-02T00:46:10.587Z,91.70
2022-10-02T00:49:26.415Z,91.20
2022-10-02T00:52:38.351Z,91.60
2022-10-02T00:55:48.252Z,91.70
2022-10-02T00:59:13.525Z,91.80
2022-10-02T01:02:12.791Z,91.80
2022-10-02T01:05:05.746Z,91.40
2022-10-02T01:07:57.654Z,90.90
2022-10-02T01:10:47.214Z,91.00
2022-10-02T01:13:36.823Z,90.60
2022-10-02T01:16:26.827Z,90.60
2022-10-02T01:19:25.967Z,90.70
2022-10-02T01:22:21.943Z,91.50
2022-10-02T01:25:13.633Z,91.20
2022-10-02T01:28:03.476Z,91.20
2022-10-02T01:30:57.877Z,90.80
2022-10-02T01:33:49.503Z,91.20
2022-10-02T01:36:39.015Z,91.10
2022-10-02T01:39:29.009Z,91.10
2022-10-02T01:42:21.092Z,91.20
2022-10-02T01:45:11.746Z,91.60
2022-10-02T01:48:10.633Z,91.70
2022-10-02T01:51:16.470Z,92.60
2022-10-02T01:54:18.582Z,93.00
2022-10-02T01:57:18.084Z,93.10
2022-10-02T02:00:14.797Z,93.30
2022-10-02T02:03:17.585Z,93.70
2022-10-02T02:06:16.662Z,94.20
2022-10-02T02:09:11.530Z,94.20
2022-10-02T02:12:09.261Z,94.30
2022-10-02T02:15:06.135Z,94.70
2022-10-02T02:18:02.294Z,94.80
2022-10-02T02:20:57.225Z,94.70
2022-10-02T02:23:48.357Z,94.60
2022-10-02T02:26:38.930Z,94.20
2022-10-02T02:29:32.468Z,94.00
2022-10-02T02:32:28.515Z,94.00
2022-10-02T02:35:26.414Z,94.00
2022-10-02T02:38:23.178Z,93.90
2022-10-02T02:41:16.867Z,93.80
2022-10-02T02:44:12.436Z,93.80
2022-10-02T02:47:07.530Z,94.10
2022-10-02T02:50:04.740Z,94.10
2022-10-02T02:53:00.506Z,94.10
2022-10-02T02:55:55.190Z,93.80
2022-10-02T02:58:50.593Z,93.40
2022-10-02T03:01:40.076Z,93.60
2022-10-02T03:04:29.412Z,93.00
2022-10-02T03:07:19.481Z,92.80
2022-10-02T03:10:17.326Z,92.80
2022-10-02T03:13:23.608Z,93.10
2022-10-02T03:16:30.023Z,93.00
2022-10-02T03:19:37.460Z,93.20
2022-10-02T03:22:36.387Z,93.20
2022-10-02T03:25:34.606Z,93.00
2022-10-02T03:28:53.646Z,93.60
2022-10-02T03:31:40.439Z,93.70
2022-10-02T03:34:32.371Z,93.60
2022-10-02T03:37:22.661Z,93.80
2022-10-02T03:40:12.635Z,93.80
2022-10-02T03:43:03.732Z,93.60
2022-10-02T03:45:53.007Z,93.60
2022-10-02T03:48:42.346Z,93.10
2022-10-02T03:51:31.635Z,92.90
2022-10-02T03:54:23.102Z,92.80
2022-10-02T03:57:18.987Z,93.10
2022-10-02T04:00:17.698Z,93.10
2022-10-02T04:03:13.794Z,93.50
2022-10-02T04:06:07.217Z,93.10
2022-10-02T04:09:04.471Z,93.10
2022-10-02T04:11:59.813Z,93.30
2022-10-02T04:14:54.983Z,93.50
2022-10-02T04:17:50.918Z,93.40
2022-10-02T04:20:48.752Z,93.60
2022-10-02T04:23:45.298Z,93.80
2022-10-02T04:26:38.963Z,93.90
2022-10-02T04:29:35.461Z,93.70
2022-10-02T04:32:28.485Z,93.80
2022-10-02T04:35:31.933Z,93.90
2022-10-02T04:38:51.146Z,94.70
2022-10-02T04:42:10.546Z,94.80
2022-10-02T04:45:18.745Z,95.20
2022-10-02T04:48:53.062Z,94.80
2022-10-02T04:52:11.126Z,95.50
2022-10-02T04:55:19.331Z,95.20
2022-10-02T04:58:31.924Z,95.10
2022-10-02T05:01:32.941Z,95.40
2022-10-02T05:04:54.090Z,95.10
2022-10-02T05:08:18.298Z,95.50
2022-10-02T05:11:34.535Z,95.90
2022-10-02T05:14:43.034Z,95.80
2022-10-02T05:17:46.941Z,96.00
2022-10-02T05:21:13.116Z,95.90
2022-10-02T05:24:27.920Z,96.80
2022-10-02T05:28:01.736Z,96.70
2022-10-02T05:31:04.193Z,97.00
2022-10-02T05:34:08.018Z,96.40
2022-10-02T05:37:19.042Z,97.30
2022-10-02T05:40:19.566Z,98.30
2022-10-02T05:43:14.517Z,99.90
2022-10-02T05:46:11.658Z,99.90
2022-10-02T05:49:09.021Z,99.90
2022-10-02T05:52:04.321Z,99.90
2022-10-02T05:54:58.967Z,99.90
2022-10-02T05:57:53.806Z,99.90
2022-10-02T06:00:50.782Z,99.90
2022-10-02T06:03:49.139Z,99.90
2022-10-02T06:06:43.066Z,99.90
2022-10-02T06:09:37.965Z,99.90
2022-10-02T06:12:37.233Z,99.90
2022-10-02T06:15:34.155Z,99.90
2022-10-02T06:18:28.702Z,99.90
2022-10-02T06:21:29.846Z,99.90
2022-10-02T06:24:25.373Z,99.90
2022-10-02T06:27:23.130Z,99.90
2022-10-02T06:30:16.144Z,99.90
2022-10-02T06:33:16.507Z,99.90
2022-10-02T06:36:40.123Z,99.90
2022-10-02T06:39:52.857Z,99.90
2022-10-02T06:42:54.992Z,99.90
2022-10-02T06:45:58.373Z,99.90
2022-10-02T06:48:58.657Z,99.90
2022-10-02T06:52:03.598Z,99.00
2022-10-02T06:55:18.401Z,97.70
2022-10-02T06:58:39.923Z,96.90
2022-10-02T07:01:46.844Z,96.80
2022-10-02T07:04:59.350Z,95.40
2022-10-02T07:08:00.677Z,94.70
2022-10-02T07:10:57.961Z,94.60
2022-10-02T07:14:07.136Z,94.40
2022-10-02T07:17:30.638Z,92.30
2022-10-02T07:20:34.172Z,91.70
2022-10-02T07:23:48.385Z,91.40
2022-10-02T07:26:50.718Z,90.50
2022-10-02T07:29:51.512Z,88.70
2022-10-02T07:32:48.977Z,84.10
2022-10-02T07:35:56.225Z,80.90
2022-10-02T07:39:11.471Z,79.90
2022-10-02T07:42:35.238Z,80.40
2022-10-02T07:45:36.291Z,81.70
2022-10-02T07:48:41.574Z,82.70
2022-10-02T07:51:49.757Z,82.20
2022-10-02T07:55:11.196Z,80.60
2022-10-02T07:58:07.137Z,80.30
2022-10-02T08:01:03.070Z,81.40
2022-10-02T08:03:57.297Z,79.80
2022-10-02T08:06:49.362Z,80.00
2022-10-02T08:09:42.734Z,78.70
2022-10-02T08:12:37.770Z,78.50
2022-10-02T08:15:29.717Z,75.50
2022-10-02T08:18:40.296Z,75.90
2022-10-02T08:21:36.275Z,73.80
2022-10-02T08:24:32.785Z,73.20
2022-10-02T08:27:29.372Z,72.10
2022-10-02T08:30:18.944Z,72.10
2022-10-02T08:33:17.583Z,72.30
2022-10-02T08:36:43.630Z,69.10
2022-10-02T08:40:23.742Z,69.10
2022-10-02T08:44:24.684Z,67.30
2022-10-02T08:47:55.416Z,66.80
2022-10-02T08:51:36.901Z,64.00
2022-10-02T08:55:20.253Z,63.30
2022-10-02T08:58:49.553Z,62.80
2022-10-02T09:02:19.877Z,61.10
2022-10-02T09:06:21.582Z,60.60
2022-10-02T09:10:03.101Z,60.00
2022-10-02T09:13:40.999Z,60.90
2022-10-02T09:16:41.204Z,60.70
2022-10-02T09:19:42.380Z,61.00
2022-10-02T09:23:14.170Z,59.00
2022-10-02T09:26:19.686Z,58.00
2022-10-02T09:30:13.130Z,58.50
2022-10-02T09:33:59.144Z,59.50
2022-10-02T09:37:29.230Z,58.90
2022-10-02T09:41:24.973Z,57.80
2022-10-02T09:45:12.757Z,57.50
2022-10-02T09:49:00.263Z,57.20
2022-10-02T09:52:51.050Z,55.50
2022-10-02T09:56:16.862Z,54.60
2022-10-02T09:59:49.902Z,54.30
2022-10-02T10:03:20.111Z,53.10
2022-10-02T10:06:53.988Z,52.40
2022-10-02T10:10:20.129Z,51.90
2022-10-02T10:14:05.649Z,52.10
2022-10-02T10:17:42.724Z,52.40
2022-10-02T10:21:30.310Z,52.30
2022-10-02T10:25:10.716Z,52.70
2022-10-02T10:28:47.115Z,53.70
2022-10-02T10:33:01.390Z,54.90
2022-10-02T10:36:58.084Z,55.60
2022-10-02T10:40:19.256Z,56.60
2022-10-02T10:44:16.163Z,57.40
2022-10-02T10:47:54.913Z,57.00
2022-10-02T10:51:17.948Z,56.90
2022-10-02T10:54:48.788Z,55.90
2022-10-02T10:58:01.229Z,55.50
2022-10-02T11:01:08.297Z,55.30
2022-10-02T11:04:39.349Z,55.40
2022-10-02T11:07:46.434Z,55.10
2022-10-02T11:10:49.747Z,54.90
2022-10-02T11:13:59.387Z,55.00
2022-10-02T11:17:47.725Z,55.00
2022-10-02T11:21:06.865Z,55.20
2022-10-02T11:24:40.070Z,55.10
2022-10-02T11:28:33.218Z,55.40
2022-10-02T11:31:53.780Z,55.60
2022-10-02T11:35:19.621Z,56.00
2022-10-02T11:39:16.343Z,56.10
2022-10-02T11:42:38.971Z,56.10
2022-10-02T11:46:01.827Z,55.90
2022-10-02T11:49:20.254Z,56.00
2022-10-02T11:52:36.442Z,56.20
2022-10-02T11:55:46.221Z,56.20
2022-10-02T11:58:48.072Z,56.30
2022-10-02T12:01:45.747Z,56.30
2022-10-02T12:04:57.336Z,56.30
2022-10-02T12:07:58.390Z,56.50
2022-10-02T12:10:57.408Z,56.60
2022-10-02T12:14:09.211Z,56.70
2022-10-02T12:17:14.806Z,56.90
2022-10-02T12:20:35.265Z,57.00
2022-10-02T12:23:54.778Z,57.00
2022-10-02T12:27:03.960Z,57.20
2022-10-02T12:30:09.405Z,57.50
2022-10-02T12:33:38.310Z,57.50
2022-10-02T12:36:58.318Z,57.80
2022-10-02T12:39:58.821Z,57.90
2022-10-02T12:43:55.584Z,57.90
2022-10-02T12:47:08.405Z,58.10
2022-10-02T12:50:16.409Z,57.90
2022-10-02T12:54:12.660Z,58.00
2022-10-02T12:57:55.972Z,58.10
2022-10-02T13:01:46.947Z,58.10
2022-10-02T13:05:12.884Z,58.20
2022-10-02T13:08:29.653Z,58.30
2022-10-02T13:11:35.369Z,58.40
2022-10-02T13:15:35.893Z,58.50
2022-10-02T13:19:13.295Z,58.60
2022-10-02T13:22:14.406Z,58.50
2022-10-02T13:25:25.774Z,58.60
2022-10-02T13:28:50.388Z,58.80
2022-10-02T13:31:56.525Z,58.70
2022-10-02T13:35:07.527Z,58.60
2022-10-02T13:38:12.459Z,58.70
2022-10-02T13:41:16.806Z,58.90
2022-10-02T13:44:16.736Z,59.10
2022-10-02T13:47:31.550Z,59.10
2022-10-02T13:50:38.716Z,59.30
2022-10-02T13:53:57.233Z,59.40
2022-10-02T13:56:54.240Z,59.50
2022-10-02T14:00:01.714Z,59.40
2022-10-02T14:03:06.199Z,59.30
2022-10-02T14:06:05.245Z,59.20
2022-10-02T14:09:13.621Z,59.00
2022-10-02T14:12:23.994Z,59.10
2022-10-02T14:15:44.594Z,58.90
2022-10-02T14:19:03.091Z,58.80
2022-10-02T14:22:12.665Z,58.50
2022-10-02T14:25:33.646Z,58.50
2022-10-02T14:28:56.311Z,58.60
2022-10-02T14:32:33.772Z,58.60
2022-10-02T14:35:35.871Z,58.80
2022-10-02T14:38:40.674Z,58.50
2022-10-02T14:42:00.262Z,58.60
2022-10-02T14:45:46.609Z,58.80
2022-10-02T14:49:10.838Z,58.70
2022-10-02T14:52:16.186Z,58.70
2022-10-02T14:55:31.348Z,58.50
2022-10-02T14:58:36.723Z,58.70
2022-10-02T15:01:27.471Z,58.60
2022-10-02T15:04:48.570Z,58.30
2022-10-02T15:07:40.405Z,58.60
2022-10-02T15:10:36.658Z,58.20
2022-10-02T15:13:33.220Z,58.30
2022-10-02T15:16:46.505Z,57.90
2022-10-02T15:19:43.678Z,58.00
2022-10-02T15:22:46.621Z,57.90
2022-10-02T15:26:09.521Z,57.90
2022-10-02T15:29:11.638Z,58.20
2022-10-02T15:32:43.549Z,58.10
2022-10-02T15:36:01.464Z,58.50
2022-10-02T15:39:46.424Z,58.50
2022-10-02T15:42:58.670Z,58.70
2022-10-02T15:46:07.951Z,58.60
2022-10-02T15:49:11.153Z,58.50
2022-10-02T15:52:09.256Z,58.50
2022-10-02T15:55:18.659Z,58.40
2022-10-02T15:58:45.809Z,58.40
2022-10-02T16:01:50.084Z,58.60
2022-10-02T16:04:50.045Z,58.60
2022-10-02T16:08:12.688Z,58.50
2022-10-02T16:11:31.481Z,59.20
2022-10-02T16:14:32.475Z,58.80
2022-10-02T16:17:39.952Z,58.70
2022-10-02T16:20:52.052Z,59.00
2022-10-02T16:24:07.641Z,58.90
2022-10-02T16:27:46.177Z,59.00
2022-10-02T16:31:00.770Z,59.30
2022-10-02T16:34:02.057Z,58.90
2022-10-02T16:36:55.587Z,59.00
2022-10-02T16:40:00.097Z,58.90
2022-10-02T16:43:06.787Z,59.40
2022-10-02T16:46:08.317Z,59.20
2022-10-02T16:49:04.236Z,59.70
2022-10-02T16:52:04.257Z,59.70
2022-10-02T16:55:02.218Z,60.00
2022-10-02T16:58:09.548Z,60.20
2022-10-02T17:01:05.239Z,60.60
2022-10-02T17:04:28.042Z,60.50
2022-10-02T17:07:31.666Z,61.40
2022-10-02T17:10:33.857Z,61.20
2022-10-02T17:13:33.152Z,61.20
2022-10-02T17:16:30.431Z,61.50
2022-10-02T17:19:27.797Z,61.60
2022-10-02T17:22:31.441Z,61.60
2022-10-02T17:25:29.754Z,62.00
2022-10-02T17:28:28.525Z,61.70
2022-10-02T17:31:34.664Z,61.90
2022-10-02T17:34:27.425Z,62.20
2022-10-02T17:37:50.026Z,61.80
2022-10-02T17:40:48.584Z,62.70
2022-10-02T17:43:44.045Z,62.10
2022-10-02T17:47:09.061Z,62.10
2022-10-02T17:50:38.283Z,62.20
2022-10-02T17:54:03.926Z,62.00
2022-10-02T17:57:13.507Z,62.10
2022-10-02T18:00:15.185Z,61.90
2022-10-02T18:03:55.588Z,61.90
2022-10-02T18:06:56.361Z,62.20
2022-10-02T18:10:01.873Z,61.80
2022-10-02T18:13:17.878Z,62.00
2022-10-02T18:16:32.530Z,62.00
2022-10-02T18:19:29.717Z,62.30
2022-10-02T18:22:44.146Z,61.90
2022-10-02T18:25:55.820Z,62.10
2022-10-02T18:29:26.418Z,62.20
2022-10-02T18:32:43.067Z,62.40
2022-10-02T18:35:50.292Z,62.10
2022-10-02T18:38:59.070Z,62.00
2022-10-02T18:41:57.878Z,61.70
2022-10-02T18:45:00.686Z,61.50
2022-10-02T18:48:08.129Z,61.50
2022-10-02T18:51:23.969Z,61.50
2022-10-02T18:54:26.055Z,61.70
2022-10-02T18:57:42.021Z,61.40
2022-10-02T19:01:05.396Z,61.80
2022-10-02T19:04:18.163Z,61.90
2022-10-02T19:07:18.589Z,61.90
2022-10-02T19:10:29.650Z,61.70
2022-10-02T19:13:28.926Z,62.10
2022-10-02T19:16:24.717Z,61.90
2022-10-02T19:19:21.564Z,61.60
2022-10-02T19:22:22.152Z,61.80
2022-10-02T19:25:16.777Z,62.70
2022-10-02T19:28:07.627Z,61.80
2022-10-02T19:31:00.943Z,61.70
2022-10-02T19:33:55.398Z,62.10
2022-10-02T19:36:50.365Z,62.30
2022-10-02T19:39:49.518Z,62.60
2022-10-02T19:42:49.083Z,62.90
2022-10-02T19:45:42.534Z,63.00
2022-10-02T19:48:33.671Z,63.10
2022-10-02T19:51:23.812Z,63.10
2022-10-02T19:54:20.208Z,63.00
2022-10-02T19:57:18.349Z,63.20
2022-10-02T20:00:17.073Z,63.40
2022-10-02T20:03:16.486Z,63.50
2022-10-02T20:06:14.158Z,63.40
2022-10-02T20:09:09.822Z,63.50
2022-10-02T20:12:03.410Z,63.50
2022-10-02T20:15:00.006Z,63.90
2022-10-02T20:17:48.391Z,64.30
2022-10-02T20:20:39.177Z,64.10
2022-10-02T20:23:30.991Z,64.40
2022-10-02T20:26:27.660Z,64.60
2022-10-02T20:29:22.448Z,64.70
2022-10-02T20:32:21.834Z,64.80
2022-10-02T20:35:18.362Z,65.40
2022-10-02T20:38:15.857Z,65.30
2022-10-02T20:41:13.647Z,65.40
2022-10-02T20:44:06.290Z,65.70
2022-10-02T20:48:08.738Z,65.60
2022-10-02T20:51:07.097Z,66.50
2022-10-02T20:54:41.252Z,65.90
2022-10-02T20:58:16.000Z,66.20
2022-10-02T21:01:19.177Z,66.30
2022-10-02T21:04:43.213Z,66.00
2022-10-02T21:08:11.377Z,65.90
2022-10-02T21:11:19.002Z,65.80
2022-10-02T21:14:54.662Z,65.60
2022-10-02T21:18:41.144Z,65.60
2022-10-02T21:22:23.660Z,66.00
2022-10-02T21:26:05.265Z,65.50
2022-10-02T21:29:53.197Z,66.00
2022-10-02T21:32:59.433Z,65.80
2022-10-02T21:35:56.878Z,65.30
2022-10-02T21:39:27.957Z,65.40
2022-10-02T21:43:08.940Z,66.20
2022-10-02T21:47:18.744Z,66.30
2022-10-02T21:50:47.234Z,66.90
2022-10-02T21:54:39.981Z,67.30
2022-10-02T21:58:21.915Z,67.80
2022-10-02T22:02:07.044Z,67.80
2022-10-02T22:05:43.574Z,68.10
2022-10-02T22:08:51.595Z,68.10
2022-10-02T22:11:56.266Z,68.00
2022-10-02T22:14:54.136Z,68.20
2022-10-02T22:17:55.836Z,68.20
2022-10-02T22:21:07.950Z,68.60
2022-10-02T22:24:45.893Z,69.00
2022-10-02T22:28:20.949Z,69.30
2022-10-02T22:31:45.457Z,69.60
2022-10-02T22:34:41.781Z,69.50
2022-10-02T22:37:56.641Z,69.20
2022-10-02T22:40:52.348Z,69.80
2022-10-02T22:43:51.386Z,69.50
2022-10-02T22:46:51.677Z,69.70
2022-10-02T22:49:47.168Z,70.10
2022-10-02T22:52:47.690Z,69.90
2022-10-02T22:55:47.069Z,69.90
2022-10-02T22:58:43.229Z,69.80
2022-10-02T23:01:45.268Z,69.90
2022-10-02T23:04:41.019Z,70.50
2022-10-02T23:07:38.655Z,70.30
2022-10-02T23:10:35.550Z,70.30
2022-10-02T23:13:30.816Z,70.70
2022-10-02T23:16:29.127Z,70.80
2022-10-02T23:19:27.434Z,71.20
2022-10-02T23:22:24.901Z,71.50
2022-10-02T23:25:24.982Z,71.60
2022-10-02T23:28:19.631Z,72.00
2022-10-02T23:31:20.771Z,71.90
2022-10-02T23:34:24.170Z,72.40
2022-10-02T23:37:20.261Z,72.40
2022-10-02T23:40:45.761Z,72.30
2022-10-02T23:43:47.967Z,72.90
2022-10-02T23:46:51.983Z,72.50
2022-10-02T23:49:47.072Z,72.50
2022-10-02T23:53:03.514Z,72.70
2022-10-02T23:56:23.724Z,73.30
2022-10-02T23:59:34.052Z,73.30
